sensor_id;sensor_type;location;lat;lon;timestamp;P1;durP1;ratioP1;P2;durP2;ratioP2
23608;SDS011;11982;50.810;4.442;2022-08-07T00:00:09;4.63;;;2.08;;
23608;SDS011;11982;50.810;4.442;2022-08-07T00:02:35;5.82;;;2.30;;
23608;SDS011;11982;50.810;4.442;2022-08-07T00:05:01;5.60;;;2.47;;
23608;SDS011;11982;50.810;4.442;2022-08-07T00:07:28;3.58;;;2.53;;
23608;SDS011;11982;50.810;4.442;2022-08-07T00:09:54;5.90;;;2.60;;
23608;SDS011;11982;50.810;4.442;2022-08-07T00:12:19;3.25;;;2.40;;
23608;SDS011;11982;50.810;4.442;2022-08-07T00:14:45;3.47;;;2.20;;
23608;SDS011;11982;50.810;4.442;2022-08-07T00:17:10;4.28;;;2.40;;
23608;SDS011;11982;50.810;4.442;2022-08-07T00:19:36;3.10;;;2.40;;
23608;SDS011;11982;50.810;4.442;2022-08-07T00:22:02;5.60;;;2.78;;
23608;SDS011;11982;50.810;4.442;2022-08-07T00:24:28;5.22;;;2.42;;
23608;SDS011;11982;50.810;4.442;2022-08-07T00:26:53;3.95;;;2.45;;
23608;SDS011;11982;50.810;4.442;2022-08-07T00:29:19;3.25;;;2.33;;
23608;SDS011;11982;50.810;4.442;2022-08-07T00:31:50;3.17;;;2.30;;
23608;SDS011;11982;50.810;4.442;2022-08-07T00:34:16;5.97;;;2.72;;
23608;SDS011;11982;50.810;4.442;2022-08-07T00:36:42;3.55;;;2.70;;
23608;SDS011;11982;50.810;4.442;2022-08-07T00:39:08;6.05;;;2.63;;
23608;SDS011;11982;50.810;4.442;2022-08-07T00:41:35;5.95;;;2.85;;
23608;SDS011;11982;50.810;4.442;2022-08-07T00:44:01;6.38;;;2.63;;
23608;SDS011;11982;50.810;4.442;2022-08-07T00:46:26;4.22;;;2.63;;
23608;SDS011;11982;50.810;4.442;2022-08-07T00:48:52;4.85;;;2.88;;
23608;SDS011;11982;50.810;4.442;2022-08-07T00:51:18;3.42;;;2.17;;
23608;SDS011;11982;50.810;4.442;2022-08-07T00:53:44;3.90;;;2.92;;
23608;SDS011;11982;50.810;4.442;2022-08-07T00:56:09;6.22;;;2.67;;
23608;SDS011;11982;50.810;4.442;2022-08-07T00:58:36;2.88;;;2.53;;
23608;SDS011;11982;50.810;4.442;2022-08-07T01:01:05;4.00;;;3.08;;
23608;SDS011;11982;50.810;4.442;2022-08-07T01:03:30;9.70;;;2.75;;
23608;SDS011;11982;50.810;4.442;2022-08-07T01:05:56;4.10;;;3.17;;
23608;SDS011;11982;50.810;4.442;2022-08-07T01:08:22;4.40;;;2.63;;
23608;SDS011;11982;50.810;4.442;2022-08-07T01:10:48;8.63;;;3.15;;
23608;SDS011;11982;50.810;4.442;2022-08-07T01:13:13;5.43;;;2.92;;
23608;SDS011;11982;50.810;4.442;2022-08-07T01:15:39;9.00;;;3.47;;
23608;SDS011;11982;50.810;4.442;2022-08-07T01:18:06;6.38;;;3.53;;
23608;SDS011;11982;50.810;4.442;2022-08-07T01:20:33;6.43;;;3.25;;
23608;SDS011;11982;50.810;4.442;2022-08-07T01:23:09;6.55;;;3.45;;
23608;SDS011;11982;50.810;4.442;2022-08-07T01:25:36;5.18;;;3.95;;
23608;SDS011;11982;50.810;4.442;2022-08-07T01:28:02;6.00;;;4.40;;
23608;SDS011;11982;50.810;4.442;2022-08-07T01:30:27;7.68;;;4.13;;
23608;SDS011;11982;50.810;4.442;2022-08-07T01:32:55;6.57;;;3.30;;
23608;SDS011;11982;50.810;4.442;2022-08-07T01:35:21;6.60;;;4.40;;
23608;SDS011;11982;50.810;4.442;2022-08-07T01:37:47;8.07;;;3.75;;
23608;SDS011;11982;50.810;4.442;2022-08-07T01:40:14;7.43;;;4.28;;
23608;SDS011;11982;50.810;4.442;2022-08-07T01:42:44;8.05;;;4.20;;
23608;SDS011;11982;50.810;4.442;2022-08-07T01:45:09;7.68;;;4.10;;
23608;SDS011;11982;50.810;4.442;2022-08-07T01:47:35;7.82;;;4.32;;
23608;SDS011;11982;50.810;4.442;2022-08-07T01:50:01;9.43;;;4.20;;
23608;SDS011;11982;50.810;4.442;2022-08-07T01:52:28;6.55;;;4.03;;
23608;SDS011;11982;50.810;4.442;2022-08-07T01:54:57;4.20;;;3.78;;
23608;SDS011;11982;50.810;4.442;2022-08-07T01:57:29;4.15;;;3.33;;
23608;SDS011;11982;50.810;4.442;2022-08-07T02:00:03;4.70;;;3.50;;
23608;SDS011;11982;50.810;4.442;2022-08-07T02:02:42;7.10;;;3.83;;
23608;SDS011;11982;50.810;4.442;2022-08-07T02:05:12;9.38;;;4.10;;
23608;SDS011;11982;50.810;4.442;2022-08-07T02:07:47;9.18;;;5.40;;
23608;SDS011;11982;50.810;4.442;2022-08-07T02:10:15;7.35;;;3.80;;
23608;SDS011;11982;50.810;4.442;2022-08-07T02:12:42;9.05;;;4.80;;
23608;SDS011;11982;50.810;4.442;2022-08-07T02:15:10;13.85;;;5.70;;
23608;SDS011;11982;50.810;4.442;2022-08-07T02:17:37;9.35;;;5.18;;
23608;SDS011;11982;50.810;4.442;2022-08-07T02:20:05;9.50;;;4.35;;
23608;SDS011;11982;50.810;4.442;2022-08-07T02:22:35;7.10;;;4.78;;
23608;SDS011;11982;50.810;4.442;2022-08-07T02:25:02;8.18;;;4.60;;
23608;SDS011;11982;50.810;4.442;2022-08-07T02:27:30;7.65;;;4.18;;
23608;SDS011;11982;50.810;4.442;2022-08-07T02:29:57;7.97;;;4.70;;
23608;SDS011;11982;50.810;4.442;2022-08-07T02:32:24;6.38;;;4.95;;
23608;SDS011;11982;50.810;4.442;2022-08-07T02:34:51;8.02;;;4.47;;
23608;SDS011;11982;50.810;4.442;2022-08-07T02:37:18;4.63;;;4.10;;
23608;SDS011;11982;50.810;4.442;2022-08-07T02:39:45;9.35;;;4.75;;
23608;SDS011;11982;50.810;4.442;2022-08-07T02:42:13;6.68;;;4.35;;
23608;SDS011;11982;50.810;4.442;2022-08-07T02:44:40;8.48;;;4.82;;
23608;SDS011;11982;50.810;4.442;2022-08-07T02:47:08;5.05;;;4.00;;
23608;SDS011;11982;50.810;4.442;2022-08-07T02:49:35;5.28;;;4.20;;
23608;SDS011;11982;50.810;4.442;2022-08-07T02:52:02;11.48;;;4.82;;
23608;SDS011;11982;50.810;4.442;2022-08-07T02:54:30;6.57;;;4.25;;
23608;SDS011;11982;50.810;4.442;2022-08-07T02:56:59;7.13;;;3.92;;
23608;SDS011;11982;50.810;4.442;2022-08-07T02:59:26;6.88;;;4.50;;
23608;SDS011;11982;50.810;4.442;2022-08-07T03:01:53;10.60;;;4.60;;
23608;SDS011;11982;50.810;4.442;2022-08-07T03:04:20;7.28;;;4.40;;
23608;SDS011;11982;50.810;4.442;2022-08-07T03:06:47;9.10;;;4.60;;
23608;SDS011;11982;50.810;4.442;2022-08-07T03:09:15;7.05;;;4.78;;
23608;SDS011;11982;50.810;4.442;2022-08-07T03:11:43;9.07;;;4.97;;
23608;SDS011;11982;50.810;4.442;2022-08-07T03:14:10;8.13;;;4.20;;
23608;SDS011;11982;50.810;4.442;2022-08-07T03:16:36;8.40;;;5.35;;
23608;SDS011;11982;50.810;4.442;2022-08-07T03:19:02;9.77;;;5.00;;
23608;SDS011;11982;50.810;4.442;2022-08-07T03:21:28;6.50;;;4.72;;
23608;SDS011;11982;50.810;4.442;2022-08-07T03:23:54;9.48;;;5.18;;
23608;SDS011;11982;50.810;4.442;2022-08-07T03:26:22;8.98;;;4.78;;
23608;SDS011;11982;50.810;4.442;2022-08-07T03:28:50;9.32;;;5.50;;
23608;SDS011;11982;50.810;4.442;2022-08-07T03:31:19;8.02;;;5.60;;
23608;SDS011;11982;50.810;4.442;2022-08-07T03:33:47;6.43;;;5.43;;
23608;SDS011;11982;50.810;4.442;2022-08-07T03:36:16;9.73;;;5.57;;
23608;SDS011;11982;50.810;4.442;2022-08-07T03:38:44;7.78;;;5.35;;
23608;SDS011;11982;50.810;4.442;2022-08-07T03:41:11;12.75;;;5.75;;
23608;SDS011;11982;50.810;4.442;2022-08-07T03:43:38;7.93;;;5.00;;
23608;SDS011;11982;50.810;4.442;2022-08-07T03:46:04;11.52;;;5.93;;
23608;SDS011;11982;50.810;4.442;2022-08-07T03:48:32;9.80;;;5.40;;
23608;SDS011;11982;50.810;4.442;2022-08-07T03:50:58;10.38;;;5.03;;
23608;SDS011;11982;50.810;4.442;2022-08-07T03:53:26;8.65;;;5.10;;
23608;SDS011;11982;50.810;4.442;2022-08-07T03:55:52;8.05;;;5.50;;
23608;SDS011;11982;50.810;4.442;2022-08-07T03:58:19;6.07;;;5.47;;
23608;SDS011;11982;50.810;4.442;2022-08-07T04:00:46;8.32;;;5.80;;
23608;SDS011;11982;50.810;4.442;2022-08-07T04:03:13;12.13;;;5.65;;
23608;SDS011;11982;50.810;4.442;2022-08-07T04:05:40;9.30;;;5.95;;
23608;SDS011;11982;50.810;4.442;2022-08-07T04:08:06;6.63;;;5.53;;
23608;SDS011;11982;50.810;4.442;2022-08-07T04:10:35;8.63;;;5.45;;
23608;SDS011;11982;50.810;4.442;2022-08-07T04:13:00;8.30;;;5.80;;
23608;SDS011;11982;50.810;4.442;2022-08-07T04:15:27;13.40;;;6.75;;
23608;SDS011;11982;50.810;4.442;2022-08-07T04:17:53;11.25;;;5.60;;
23608;SDS011;11982;50.810;4.442;2022-08-07T04:20:19;12.30;;;6.78;;
23608;SDS011;11982;50.810;4.442;2022-08-07T04:22:45;7.68;;;5.82;;
23608;SDS011;11982;50.810;4.442;2022-08-07T04:25:13;8.93;;;6.28;;
23608;SDS011;11982;50.810;4.442;2022-08-07T04:27:40;11.13;;;6.20;;
23608;SDS011;11982;50.810;4.442;2022-08-07T04:30:06;12.43;;;6.53;;
23608;SDS011;11982;50.810;4.442;2022-08-07T04:32:33;10.70;;;6.18;;
23608;SDS011;11982;50.810;4.442;2022-08-07T04:35:00;10.52;;;6.35;;
23608;SDS011;11982;50.810;4.442;2022-08-07T04:37:27;11.98;;;6.40;;
23608;SDS011;11982;50.810;4.442;2022-08-07T04:39:53;9.60;;;6.20;;
23608;SDS011;11982;50.810;4.442;2022-08-07T04:42:18;11.88;;;6.40;;
23608;SDS011;11982;50.810;4.442;2022-08-07T04:44:44;9.98;;;6.40;;
23608;SDS011;11982;50.810;4.442;2022-08-07T04:47:19;8.27;;;5.28;;
23608;SDS011;11982;50.810;4.442;2022-08-07T04:50:05;8.68;;;5.40;;
23608;SDS011;11982;50.810;4.442;2022-08-07T04:55:48;8.75;;;5.40;;
23608;SDS011;11982;50.810;4.442;2022-08-07T05:00:50;8.10;;;5.53;;
23608;SDS011;11982;50.810;4.442;2022-08-07T05:03:28;5.75;;;5.10;;
23608;SDS011;11982;50.810;4.442;2022-08-07T05:06:17;12.40;;;5.50;;
23608;SDS011;11982;50.810;4.442;2022-08-07T05:11:33;9.82;;;5.90;;
23608;SDS011;11982;50.810;4.442;2022-08-07T05:14:10;8.10;;;5.70;;
23608;SDS011;11982;50.810;4.442;2022-08-07T05:16:41;8.43;;;6.78;;
23608;SDS011;11982;50.810;4.442;2022-08-07T05:19:12;8.63;;;5.53;;
23608;SDS011;11982;50.810;4.442;2022-08-07T05:21:47;9.85;;;6.10;;
23608;SDS011;11982;50.810;4.442;2022-08-07T05:24:18;7.60;;;5.25;;
23608;SDS011;11982;50.810;4.442;2022-08-07T05:26:45;7.50;;;5.78;;
23608;SDS011;11982;50.810;4.442;2022-08-07T05:29:14;10.68;;;6.78;;
23608;SDS011;11982;50.810;4.442;2022-08-07T05:31:42;8.20;;;5.93;;
23608;SDS011;11982;50.810;4.442;2022-08-07T05:34:10;8.50;;;5.80;;
23608;SDS011;11982;50.810;4.442;2022-08-07T05:36:41;9.10;;;6.20;;
23608;SDS011;11982;50.810;4.442;2022-08-07T05:39:09;12.52;;;7.90;;
23608;SDS011;11982;50.810;4.442;2022-08-07T05:41:37;11.02;;;7.60;;
23608;SDS011;11982;50.810;4.442;2022-08-07T05:44:03;15.85;;;8.85;;
23608;SDS011;11982;50.810;4.442;2022-08-07T05:46:29;14.52;;;9.98;;
23608;SDS011;11982;50.810;4.442;2022-08-07T05:48:55;16.92;;;10.23;;
23608;SDS011;11982;50.810;4.442;2022-08-07T05:51:22;15.73;;;10.38;;
23608;SDS011;11982;50.810;4.442;2022-08-07T05:53:48;17.15;;;10.45;;
23608;SDS011;11982;50.810;4.442;2022-08-07T05:56:15;13.70;;;9.52;;
23608;SDS011;11982;50.810;4.442;2022-08-07T05:58:43;13.18;;;9.38;;
23608;SDS011;11982;50.810;4.442;2022-08-07T06:01:11;16.60;;;9.13;;
23608;SDS011;11982;50.810;4.442;2022-08-07T06:03:38;13.10;;;8.95;;
23608;SDS011;11982;50.810;4.442;2022-08-07T06:06:08;15.05;;;8.77;;
23608;SDS011;11982;50.810;4.442;2022-08-07T06:08:35;12.27;;;8.10;;
23608;SDS011;11982;50.810;4.442;2022-08-07T06:11:01;10.20;;;8.18;;
23608;SDS011;11982;50.810;4.442;2022-08-07T06:13:27;13.52;;;8.10;;
23608;SDS011;11982;50.810;4.442;2022-08-07T06:15:53;11.48;;;7.60;;
23608;SDS011;11982;50.810;4.442;2022-08-07T06:18:19;11.23;;;6.90;;
23608;SDS011;11982;50.810;4.442;2022-08-07T06:20:46;9.93;;;6.65;;
23608;SDS011;11982;50.810;4.442;2022-08-07T06:23:12;9.35;;;7.07;;
23608;SDS011;11982;50.810;4.442;2022-08-07T06:25:39;8.52;;;6.50;;
23608;SDS011;11982;50.810;4.442;2022-08-07T06:28:07;9.82;;;6.35;;
23608;SDS011;11982;50.810;4.442;2022-08-07T06:30:37;10.88;;;6.60;;
23608;SDS011;11982;50.810;4.442;2022-08-07T06:33:04;13.50;;;6.57;;
23608;SDS011;11982;50.810;4.442;2022-08-07T06:35:30;8.23;;;6.20;;
23608;SDS011;11982;50.810;4.442;2022-08-07T06:37:56;8.85;;;6.20;;
23608;SDS011;11982;50.810;4.442;2022-08-07T06:40:22;8.25;;;5.88;;
23608;SDS011;11982;50.810;4.442;2022-08-07T06:42:49;8.73;;;5.60;;
23608;SDS011;11982;50.810;4.442;2022-08-07T06:45:17;9.48;;;5.60;;
23608;SDS011;11982;50.810;4.442;2022-08-07T06:47:45;10.43;;;6.07;;
23608;SDS011;11982;50.810;4.442;2022-08-07T06:50:11;6.57;;;4.93;;
23608;SDS011;11982;50.810;4.442;2022-08-07T06:52:38;13.63;;;5.43;;
23608;SDS011;11982;50.810;4.442;2022-08-07T06:55:13;9.43;;;5.53;;
23608;SDS011;11982;50.810;4.442;2022-08-07T06:57:42;7.70;;;4.80;;
23608;SDS011;11982;50.810;4.442;2022-08-07T07:00:09;10.38;;;5.10;;
23608;SDS011;11982;50.810;4.442;2022-08-07T07:02:36;7.32;;;4.80;;
23608;SDS011;11982;50.810;4.442;2022-08-07T07:05:03;8.63;;;5.53;;
23608;SDS011;11982;50.810;4.442;2022-08-07T07:07:29;6.63;;;4.97;;
23608;SDS011;11982;50.810;4.442;2022-08-07T07:09:55;6.95;;;4.93;;
23608;SDS011;11982;50.810;4.442;2022-08-07T07:14:51;8.25;;;5.85;;
23608;SDS011;11982;50.810;4.442;2022-08-07T07:17:19;8.35;;;5.32;;
23608;SDS011;11982;50.810;4.442;2022-08-07T07:19:52;7.97;;;6.00;;
23608;SDS011;11982;50.810;4.442;2022-08-07T07:22:21;9.40;;;5.90;;
23608;SDS011;11982;50.810;4.442;2022-08-07T07:24:48;9.25;;;5.45;;
23608;SDS011;11982;50.810;4.442;2022-08-07T07:27:15;11.57;;;5.93;;
23608;SDS011;11982;50.810;4.442;2022-08-07T07:29:46;7.88;;;6.00;;
23608;SDS011;11982;50.810;4.442;2022-08-07T07:32:15;11.57;;;6.05;;
23608;SDS011;11982;50.810;4.442;2022-08-07T07:34:44;9.07;;;5.88;;
23608;SDS011;11982;50.810;4.442;2022-08-07T07:37:11;8.77;;;5.22;;
23608;SDS011;11982;50.810;4.442;2022-08-07T07:39:38;10.68;;;5.63;;
23608;SDS011;11982;50.810;4.442;2022-08-07T07:42:05;8.00;;;4.88;;
23608;SDS011;11982;50.810;4.442;2022-08-07T07:44:34;7.22;;;5.20;;
23608;SDS011;11982;50.810;4.442;2022-08-07T07:47:03;10.18;;;5.25;;
23608;SDS011;11982;50.810;4.442;2022-08-07T07:49:31;8.80;;;5.50;;
23608;SDS011;11982;50.810;4.442;2022-08-07T07:51:58;10.32;;;5.80;;
23608;SDS011;11982;50.810;4.442;2022-08-07T07:54:25;10.60;;;5.45;;
23608;SDS011;11982;50.810;4.442;2022-08-07T07:56:52;10.10;;;4.60;;
23608;SDS011;11982;50.810;4.442;2022-08-07T07:59:19;9.82;;;5.25;;
23608;SDS011;11982;50.810;4.442;2022-08-07T08:01:45;9.23;;;4.85;;
23608;SDS011;11982;50.810;4.442;2022-08-07T08:04:13;7.80;;;5.32;;
23608;SDS011;11982;50.810;4.442;2022-08-07T08:06:42;9.57;;;5.00;;
23608;SDS011;11982;50.810;4.442;2022-08-07T08:09:09;6.70;;;4.63;;
23608;SDS011;11982;50.810;4.442;2022-08-07T08:11:38;6.95;;;4.78;;
23608;SDS011;11982;50.810;4.442;2022-08-07T08:14:03;6.40;;;4.60;;
23608;SDS011;11982;50.810;4.442;2022-08-07T08:16:39;6.97;;;5.00;;
23608;SDS011;11982;50.810;4.442;2022-08-07T08:19:11;9.77;;;5.45;;
23608;SDS011;11982;50.810;4.442;2022-08-07T08:21:40;9.63;;;4.95;;
23608;SDS011;11982;50.810;4.442;2022-08-07T08:24:28;8.45;;;5.57;;
23608;SDS011;11982;50.810;4.442;2022-08-07T08:27:15;8.40;;;4.72;;
23608;SDS011;11982;50.810;4.442;2022-08-07T08:32:14;8.68;;;4.68;;
23608;SDS011;11982;50.810;4.442;2022-08-07T08:34:44;6.72;;;4.43;;
23608;SDS011;11982;50.810;4.442;2022-08-07T08:37:12;5.90;;;3.90;;
23608;SDS011;11982;50.810;4.442;2022-08-07T08:39:41;8.70;;;4.57;;
23608;SDS011;11982;50.810;4.442;2022-08-07T08:42:55;6.78;;;4.45;;
23608;SDS011;11982;50.810;4.442;2022-08-07T08:50:31;7.65;;;3.97;;
23608;SDS011;11982;50.810;4.442;2022-08-07T08:56:10;8.98;;;4.45;;
23608;SDS011;11982;50.810;4.442;2022-08-07T08:59:03;7.45;;;4.18;;
23608;SDS011;11982;50.810;4.442;2022-08-07T09:15:27;7.20;;;4.10;;
23608;SDS011;11982;50.810;4.442;2022-08-07T09:18:32;7.93;;;3.60;;
23608;SDS011;11982;50.810;4.442;2022-08-07T09:26:57;6.57;;;3.50;;
23608;SDS011;11982;50.810;4.442;2022-08-07T09:32:23;5.63;;;3.70;;
23608;SDS011;11982;50.810;4.442;2022-08-07T09:38:08;6.80;;;3.60;;
23608;SDS011;11982;50.810;4.442;2022-08-07T09:48:39;4.85;;;3.53;;
23608;SDS011;11982;50.810;4.442;2022-08-07T09:54:05;5.70;;;3.38;;
23608;SDS011;11982;50.810;4.442;2022-08-07T10:16:21;7.93;;;2.92;;
23608;SDS011;11982;50.810;4.442;2022-08-07T10:24:31;6.00;;;2.95;;
23608;SDS011;11982;50.810;4.442;2022-08-07T10:27:44;9.32;;;3.53;;
23608;SDS011;11982;50.810;4.442;2022-08-07T10:30:14;5.57;;;3.30;;
23608;SDS011;11982;50.810;4.442;2022-08-07T10:40:42;5.05;;;2.72;;
23608;SDS011;11982;50.810;4.442;2022-08-07T10:46:12;6.57;;;2.90;;
23608;SDS011;11982;50.810;4.442;2022-08-07T10:54:58;5.50;;;2.80;;
23608;SDS011;11982;50.810;4.442;2022-08-07T10:57:12;5.60;;;2.60;;
23608;SDS011;11982;50.810;4.442;2022-08-07T11:00:01;5.35;;;2.88;;
23608;SDS011;11982;50.810;4.442;2022-08-07T11:13:44;7.20;;;2.63;;
23608;SDS011;11982;50.810;4.442;2022-08-07T11:16:30;3.42;;;2.20;;
23608;SDS011;11982;50.810;4.442;2022-08-07T11:19:17;4.60;;;2.20;;
23608;SDS011;11982;50.810;4.442;2022-08-07T11:35:14;4.88;;;2.72;;
23608;SDS011;11982;50.810;4.442;2022-08-07T11:40:45;5.65;;;2.40;;
23608;SDS011;11982;50.810;4.442;2022-08-07T11:43:30;5.22;;;2.60;;
23608;SDS011;11982;50.810;4.442;2022-08-07T11:48:53;5.22;;;2.65;;
23608;SDS011;11982;50.810;4.442;2022-08-07T12:05:10;4.90;;;2.20;;
23608;SDS011;11982;50.810;4.442;2022-08-07T12:07:43;6.03;;;2.15;;
23608;SDS011;11982;50.810;4.442;2022-08-07T12:10:30;3.58;;;2.13;;
23608;SDS011;11982;50.810;4.442;2022-08-07T12:13:05;7.47;;;2.80;;
23608;SDS011;11982;50.810;4.442;2022-08-07T12:15:46;3.13;;;2.30;;
23608;SDS011;11982;50.810;4.442;2022-08-07T12:18:26;3.50;;;2.47;;
23608;SDS011;11982;50.810;4.442;2022-08-07T12:21:15;6.82;;;2.13;;
23608;SDS011;11982;50.810;4.442;2022-08-07T12:23:56;4.35;;;2.13;;
23608;SDS011;11982;50.810;4.442;2022-08-07T12:26:33;3.80;;;2.00;;
23608;SDS011;11982;50.810;4.442;2022-08-07T12:31:48;8.68;;;2.40;;
23608;SDS011;11982;50.810;4.442;2022-08-07T12:34:22;2.28;;;1.77;;
23608;SDS011;11982;50.810;4.442;2022-08-07T12:36:50;14.00;;;2.58;;
23608;SDS011;11982;50.810;4.442;2022-08-07T12:39:18;4.65;;;2.30;;
23608;SDS011;11982;50.810;4.442;2022-08-07T12:41:45;4.18;;;2.15;;
23608;SDS011;11982;50.810;4.442;2022-08-07T12:44:12;5.30;;;2.60;;
23608;SDS011;11982;50.810;4.442;2022-08-07T12:46:54;3.30;;;2.38;;
23608;SDS011;11982;50.810;4.442;2022-08-07T12:57:48;2.63;;;1.98;;
23608;SDS011;11982;50.810;4.442;2022-08-07T13:00:15;3.38;;;1.63;;
23608;SDS011;11982;50.810;4.442;2022-08-07T13:05:40;4.78;;;2.08;;
23608;SDS011;11982;50.810;4.442;2022-08-07T13:08:50;4.72;;;2.05;;
23608;SDS011;11982;50.810;4.442;2022-08-07T13:11:40;3.72;;;2.05;;
23608;SDS011;11982;50.810;4.442;2022-08-07T13:14:34;3.55;;;2.38;;
23608;SDS011;11982;50.810;4.442;2022-08-07T13:20:07;4.65;;;2.30;;
23608;SDS011;11982;50.810;4.442;2022-08-07T13:22:45;3.75;;;2.38;;
23608;SDS011;11982;50.810;4.442;2022-08-07T13:28:02;2.30;;;2.10;;
23608;SDS011;11982;50.810;4.442;2022-08-07T13:30:31;5.45;;;1.85;;
23608;SDS011;11982;50.810;4.442;2022-08-07T13:35:51;5.80;;;2.05;;
23608;SDS011;11982;50.810;4.442;2022-08-07T13:38:26;2.95;;;1.95;;
23608;SDS011;11982;50.810;4.442;2022-08-07T13:41:11;5.10;;;2.20;;
23608;SDS011;11982;50.810;4.442;2022-08-07T13:43:49;4.03;;;2.15;;
23608;SDS011;11982;50.810;4.442;2022-08-07T13:46:18;3.40;;;2.10;;
23608;SDS011;11982;50.810;4.442;2022-08-07T13:48:48;3.10;;;1.48;;
23608;SDS011;11982;50.810;4.442;2022-08-07T13:51:17;4.00;;;1.80;;
23608;SDS011;11982;50.810;4.442;2022-08-07T13:53:49;2.97;;;1.70;;
23608;SDS011;11982;50.810;4.442;2022-08-07T13:56:18;4.90;;;1.80;;
23608;SDS011;11982;50.810;4.442;2022-08-07T13:58:47;3.42;;;1.95;;
23608;SDS011;11982;50.810;4.442;2022-08-07T14:01:37;9.30;;;1.83;;
23608;SDS011;11982;50.810;4.442;2022-08-07T14:04:15;5.55;;;1.65;;
23608;SDS011;11982;50.810;4.442;2022-08-07T14:06:46;5.38;;;1.70;;
23608;SDS011;11982;50.810;4.442;2022-08-07T14:09:20;11.70;;;1.98;;
23608;SDS011;11982;50.810;4.442;2022-08-07T14:11:57;2.20;;;2.00;;
23608;SDS011;11982;50.810;4.442;2022-08-07T14:14:27;4.47;;;2.10;;
23608;SDS011;11982;50.810;4.442;2022-08-07T14:16:55;2.08;;;1.80;;
23608;SDS011;11982;50.810;4.442;2022-08-07T14:19:31;1.75;;;1.65;;
23608;SDS011;11982;50.810;4.442;2022-08-07T14:22:01;3.10;;;1.75;;
23608;SDS011;11982;50.810;4.442;2022-08-07T14:24:33;1.95;;;1.70;;
23608;SDS011;11982;50.810;4.442;2022-08-07T14:27:10;1.73;;;1.55;;
23608;SDS011;11982;50.810;4.442;2022-08-07T14:29:39;2.97;;;1.83;;
23608;SDS011;11982;50.810;4.442;2022-08-07T14:32:07;2.20;;;1.90;;
23608;SDS011;11982;50.810;4.442;2022-08-07T14:34:37;4.57;;;2.03;;
23608;SDS011;11982;50.810;4.442;2022-08-07T14:37:09;1.98;;;1.77;;
23608;SDS011;11982;50.810;4.442;2022-08-07T14:39:37;2.63;;;1.50;;
23608;SDS011;11982;50.810;4.442;2022-08-07T14:42:06;2.20;;;1.67;;
23608;SDS011;11982;50.810;4.442;2022-08-07T14:44:36;5.72;;;1.45;;
23608;SDS011;11982;50.810;4.442;2022-08-07T14:47:11;3.38;;;1.70;;
23608;SDS011;11982;50.810;4.442;2022-08-07T14:49:39;3.33;;;1.40;;
23608;SDS011;11982;50.810;4.442;2022-08-07T14:52:07;2.50;;;1.90;;
23608;SDS011;11982;50.810;4.442;2022-08-07T14:54:33;2.92;;;1.70;;
23608;SDS011;11982;50.810;4.442;2022-08-07T14:57:02;1.60;;;1.50;;
23608;SDS011;11982;50.810;4.442;2022-08-07T14:59:32;4.53;;;1.73;;
23608;SDS011;11982;50.810;4.442;2022-08-07T15:02:13;4.38;;;1.90;;
23608;SDS011;11982;50.810;4.442;2022-08-07T15:04:41;3.38;;;1.70;;
23608;SDS011;11982;50.810;4.442;2022-08-07T15:07:10;2.25;;;1.63;;
23608;SDS011;11982;50.810;4.442;2022-08-07T15:09:40;1.85;;;1.20;;
23608;SDS011;11982;50.810;4.442;2022-08-07T15:12:09;2.60;;;1.85;;
23608;SDS011;11982;50.810;4.442;2022-08-07T15:14:40;3.78;;;2.10;;
23608;SDS011;11982;50.810;4.442;2022-08-07T15:17:15;4.47;;;1.98;;
23608;SDS011;11982;50.810;4.442;2022-08-07T15:19:47;3.20;;;1.77;;
23608;SDS011;11982;50.810;4.442;2022-08-07T15:22:28;4.10;;;1.73;;
23608;SDS011;11982;50.810;4.442;2022-08-07T15:24:55;3.03;;;1.80;;
23608;SDS011;11982;50.810;4.442;2022-08-07T15:27:24;1.90;;;1.75;;
23608;SDS011;11982;50.810;4.442;2022-08-07T15:29:54;1.92;;;1.70;;
23608;SDS011;11982;50.810;4.442;2022-08-07T15:32:25;4.05;;;1.70;;
23608;SDS011;11982;50.810;4.442;2022-08-07T15:34:54;4.63;;;1.70;;
23608;SDS011;11982;50.810;4.442;2022-08-07T15:37:29;1.95;;;1.58;;
23608;SDS011;11982;50.810;4.442;2022-08-07T15:39:58;1.77;;;1.60;;
23608;SDS011;11982;50.810;4.442;2022-08-07T15:45:12;3.42;;;1.70;;
23608;SDS011;11982;50.810;4.442;2022-08-07T15:48:12;3.67;;;1.75;;
23608;SDS011;11982;50.810;4.442;2022-08-07T15:50:43;3.28;;;2.05;;
23608;SDS011;11982;50.810;4.442;2022-08-07T15:53:16;3.78;;;2.78;;
23608;SDS011;11982;50.810;4.442;2022-08-07T15:55:54;2.63;;;2.05;;
23608;SDS011;11982;50.810;4.442;2022-08-07T15:58:22;3.25;;;2.42;;
23608;SDS011;11982;50.810;4.442;2022-08-07T16:00:58;5.10;;;2.15;;
23608;SDS011;11982;50.810;4.442;2022-08-07T16:03:26;3.03;;;1.92;;
23608;SDS011;11982;50.810;4.442;2022-08-07T16:05:56;3.65;;;2.22;;
23608;SDS011;11982;50.810;4.442;2022-08-07T16:08:23;2.90;;;1.55;;
23608;SDS011;11982;50.810;4.442;2022-08-07T16:11:03;2.63;;;2.00;;
23608;SDS011;11982;50.810;4.442;2022-08-07T16:13:53;3.53;;;1.80;;
23608;SDS011;11982;50.810;4.442;2022-08-07T16:25:10;4.57;;;1.60;;
23608;SDS011;11982;50.810;4.442;2022-08-07T16:28:10;4.93;;;2.00;;
23608;SDS011;11982;50.810;4.442;2022-08-07T16:30:43;2.30;;;1.83;;
23608;SDS011;11982;50.810;4.442;2022-08-07T16:33:41;6.13;;;2.22;;
23608;SDS011;11982;50.810;4.442;2022-08-07T16:41:29;3.28;;;1.88;;
23608;SDS011;11982;50.810;4.442;2022-08-07T16:52:34;5.38;;;2.45;;
23608;SDS011;11982;50.810;4.442;2022-08-07T16:58:04;7.20;;;2.58;;
23608;SDS011;11982;50.810;4.442;2022-08-07T17:00:59;4.70;;;2.60;;
23608;SDS011;11982;50.810;4.442;2022-08-07T17:03:49;6.18;;;2.88;;
23608;SDS011;11982;50.810;4.442;2022-08-07T17:09:28;3.70;;;2.53;;
23608;SDS011;11982;50.810;4.442;2022-08-07T17:12:02;4.65;;;2.40;;
23608;SDS011;11982;50.810;4.442;2022-08-07T17:14:49;5.93;;;2.63;;
23608;SDS011;11982;50.810;4.442;2022-08-07T17:23:02;7.55;;;3.08;;
23608;SDS011;11982;50.810;4.442;2022-08-07T17:31:57;4.38;;;2.80;;
23608;SDS011;11982;50.810;4.442;2022-08-07T17:34:49;4.07;;;3.10;;
23608;SDS011;11982;50.810;4.442;2022-08-07T17:40:15;6.70;;;3.00;;
23608;SDS011;11982;50.810;4.442;2022-08-07T17:43:08;8.05;;;3.08;;
23608;SDS011;11982;50.810;4.442;2022-08-07T17:45:40;5.13;;;2.90;;
23608;SDS011;11982;50.810;4.442;2022-08-07T17:48:10;6.03;;;3.25;;
23608;SDS011;11982;50.810;4.442;2022-08-07T17:50:54;6.88;;;3.38;;
23608;SDS011;11982;50.810;4.442;2022-08-07T17:56:22;8.52;;;3.20;;
23608;SDS011;11982;50.810;4.442;2022-08-07T18:01:19;7.00;;;3.42;;
23608;SDS011;11982;50.810;4.442;2022-08-07T18:07:37;5.97;;;3.03;;
23608;SDS011;11982;50.810;4.442;2022-08-07T18:09:31;5.60;;;3.25;;
23608;SDS011;11982;50.810;4.442;2022-08-07T18:14:48;7.15;;;3.90;;
23608;SDS011;11982;50.810;4.442;2022-08-07T18:19:58;5.28;;;3.33;;
23608;SDS011;11982;50.810;4.442;2022-08-07T18:22:31;4.72;;;3.10;;
23608;SDS011;11982;50.810;4.442;2022-08-07T18:25:00;6.22;;;2.80;;
23608;SDS011;11982;50.810;4.442;2022-08-07T18:30:02;7.82;;;3.03;;
23608;SDS011;11982;50.810;4.442;2022-08-07T18:38:59;9.00;;;3.58;;
23608;SDS011;11982;50.810;4.442;2022-08-07T18:41:43;5.80;;;2.78;;
23608;SDS011;11982;50.810;4.442;2022-08-07T18:44:38;5.65;;;3.05;;
23608;SDS011;11982;50.810;4.442;2022-08-07T18:47:35;5.18;;;3.30;;
23608;SDS011;11982;50.810;4.442;2022-08-07T18:55:22;9.77;;;3.22;;
23608;SDS011;11982;50.810;4.442;2022-08-07T18:57:54;6.03;;;3.20;;
23608;SDS011;11982;50.810;4.442;2022-08-07T19:03:14;7.68;;;2.95;;
23608;SDS011;11982;50.810;4.442;2022-08-07T19:06:35;6.03;;;3.20;;
23608;SDS011;11982;50.810;4.442;2022-08-07T19:11:14;4.80;;;3.30;;
23608;SDS011;11982;50.810;4.442;2022-08-07T19:18:59;8.23;;;3.00;;
23608;SDS011;11982;50.810;4.442;2022-08-07T19:24:21;4.63;;;3.10;;